Time;durP1;ratioP1;P1;durP2;ratioP2;P2;SDS_P1;SDS_P2;PMS_P1;PMS_P2;Temp;Humidity;BMP_temperature;BMP_pressure;BME280_temperature;BME280_humidity;BME280_pressure;Samples;Min_cycle;Max_cycle;Signal;HPM_P1;HPM_P2
2022/06/06 00:01:37;;;;;;;;;8.25;6.00;;;;;16.89;72.07;101485.31;5078490;27;45487;-88
2022/06/06 00:04:02;;;;;;;;;9.25;7.25;;;;;16.87;72.74;101486.31;5074926;28;58951;-88
2022/06/06 00:06:28;;;;;;;;;8.00;6.75;;;;;16.86;72.33;101481.94;5055811;27;45414;-88
2022/06/06 00:08:55;;;;;;;;;7.25;7.25;;;;;16.80;72.47;101483.03;5059869;27;58643;-88
2022/06/06 00:11:21;;;;;;;;;8.25;8.25;;;;;16.75;72.69;101485.00;5075376;27;45730;-88
2022/06/06 00:13:47;;;;;;;;;6.25;5.00;;;;;16.73;72.73;101479.81;5076697;27;45531;-88
2022/06/06 00:16:12;;;;;;;;;7.00;5.00;;;;;16.70;72.05;101481.75;5093842;27;45316;-88
2022/06/06 00:18:38;;;;;;;;;5.50;5.00;;;;;16.65;72.33;101493.28;5095107;27;45382;-88
2022/06/06 00:21:05;;;;;;;;;7.25;5.50;;;;;16.62;72.68;101484.66;5072829;27;45594;-88
2022/06/06 00:23:30;;;;;;;;;7.75;6.00;;;;;16.60;72.41;101491.75;5079352;27;45333;-88
2022/06/06 00:25:56;;;;;;;;;6.00;6.00;;;;;16.53;72.08;101487.69;5080591;27;55563;-88
2022/06/06 00:28:21;;;;;;;;;7.00;6.25;;;;;16.44;72.71;101484.53;5078510;27;46093;-87
2022/06/06 00:30:47;;;;;;;;;5.75;5.75;;;;;16.37;73.21;101476.97;5075689;27;54052;-88
2022/06/06 00:35:57;;;;;;;;;8.75;5.00;;;;;16.30;72.96;101480.78;5097057;27;45543;-88
2022/06/06 00:38:23;;;;;;;;;5.75;5.00;;;;;16.31;73.31;101474.63;5076956;27;47785;-89
2022/06/06 00:40:49;;;;;;;;;6.00;6.00;;;;;16.32;73.45;101469.25;5079889;27;57156;-88
2022/06/06 00:43:15;;;;;;;;;8.25;3.25;;;;;16.33;72.71;101470.16;5099626;27;45392;-87
2022/06/06 00:45:41;;;;;;;;;9.50;8.00;;;;;16.32;73.48;101466.63;5097122;27;45360;-87
2022/06/06 00:48:14;;;;;;;;;6.75;4.25;;;;;16.30;73.22;101459.75;5095645;27;46186;-88
2022/06/06 00:50:52;;;;;;;;;5.00;5.00;;;;;16.22;72.96;101462.69;5095608;27;45322;-88
2022/06/06 00:53:24;;;;;;;;;6.00;5.50;;;;;16.14;73.12;101459.50;5077764;27;45349;-88
2022/06/06 00:55:54;;;;;;;;;6.25;4.00;;;;;16.14;73.44;101455.13;5081881;27;45345;-88
2022/06/06 00:58:21;;;;;;;;;12.00;6.00;;;;;16.13;73.54;101455.19;5086356;27;48109;-88
2022/06/06 01:00:46;;;;;;;;;9.00;5.25;;;;;16.07;73.27;101448.41;5081242;27;45388;-88
2022/06/06 01:03:15;;;;;;;;;12.75;9.00;;;;;16.03;73.27;101455.56;5078115;27;45393;-88
2022/06/06 01:05:41;;;;;;;;;5.75;5.00;;;;;16.01;73.61;101451.28;5078709;27;45757;-88
2022/06/06 01:08:07;;;;;;;;;9.25;6.00;;;;;15.98;73.48;101451.41;5079716;27;46896;-89
2022/06/06 01:10:33;;;;;;;;;8.00;6.00;;;;;15.95;73.53;101447.13;5098156;27;45378;-88
2022/06/06 01:12:59;;;;;;;;;6.75;5.50;;;;;15.98;74.07;101443.53;5077721;27;45530;-89
2022/06/06 01:15:25;;;;;;;;;6.75;5.75;;;;;16.01;73.92;101438.16;5072752;27;57220;-89
2022/06/06 01:18:12;;;;;;;;;8.50;8.50;;;;;16.02;73.60;101445.13;5078620;27;45821;-90
2022/06/06 01:20:46;;;;;;;;;11.75;8.50;;;;;16.01;73.59;101443.41;5096273;27;45466;-90
2022/06/06 01:23:31;;;;;;;;;8.00;7.75;;;;;16.01;74.17;101440.78;5097257;27;45342;-88
2022/06/06 01:26:09;;;;;;;;;6.00;5.75;;;;;16.03;74.04;101438.97;5096181;27;45335;-88
2022/06/06 01:28:50;;;;;;;;;8.50;6.75;;;;;16.05;73.90;101437.97;5092845;27;47225;-88
2022/06/06 01:31:36;;;;;;;;;7.50;5.75;;;;;16.08;73.94;101444.00;5095621;27;45409;-88
2022/06/06 01:34:02;;;;;;;;;8.00;6.25;;;;;16.12;74.00;101443.84;5096565;27;45416;-88
2022/06/06 01:36:29;;;;;;;;;7.00;7.00;;;;;16.16;74.03;101445.41;5095481;27;45492;-87
2022/06/06 01:38:59;;;;;;;;;9.75;9.00;;;;;16.21;73.38;101447.84;5096685;27;45536;-88
2022/06/06 01:41:52;;;;;;;;;8.25;7.50;;;;;16.23;73.64;101449.50;5078051;27;45732;-88
2022/06/06 01:44:43;;;;;;;;;13.75;9.75;;;;;16.23;73.61;101452.13;5081473;27;45524;-88
2022/06/06 01:47:12;;;;;;;;;12.50;8.00;;;;;16.19;73.70;101457.56;5074035;27;45450;-88
2022/06/06 01:49:38;;;;;;;;;10.25;6.75;;;;;16.12;73.72;101454.34;5072778;28;48328;-88
2022/06/06 01:52:09;;;;;;;;;10.25;9.25;;;;;16.05;73.92;101447.63;5042150;28;45719;-88
2022/06/06 01:54:34;;;;;;;;;11.50;8.00;;;;;16.00;73.45;101446.97;5057661;28;45517;-88
2022/06/06 01:57:00;;;;;;;;;10.50;8.00;;;;;15.95;73.42;101444.50;5076112;27;45281;-89
2022/06/06 01:59:28;;;;;;;;;8.75;6.75;;;;;15.92;73.64;101442.00;5075672;28;45380;-88
2022/06/06 02:01:56;;;;;;;;;9.75;9.00;;;;;15.90;73.35;101445.59;5057530;28;46025;-88
2022/06/06 02:04:21;;;;;;;;;9.25;6.50;;;;;15.85;73.67;101453.69;5043665;28;45405;-88
2022/06/06 02:06:47;;;;;;;;;10.50;10.00;;;;;15.78;73.31;101447.78;5073703;28;45641;-88
2022/06/06 02:09:12;;;;;;;;;9.50;5.50;;;;;15.73;73.42;101439.25;5074472;28;54333;-88
2022/06/06 02:11:38;;;;;;;;;11.50;9.00;;;;;15.67;73.82;101432.47;5073375;28;46052;-88
2022/06/06 02:14:04;;;;;;;;;9.75;6.25;;;;;15.62;73.60;101436.16;5074992;28;45320;-89
2022/06/06 02:16:31;;;;;;;;;10.50;7.50;;;;;15.56;73.68;101437.25;5058222;28;45523;-88
2022/06/06 02:18:57;;;;;;;;;8.75;5.00;;;;;15.53;74.03;101434.75;5075198;28;45370;-88
2022/06/06 02:21:22;;;;;;;;;9.00;7.50;;;;;15.48;73.98;101434.91;5074282;28;45399;-88
2022/06/06 02:23:48;;;;;;;;;6.75;6.75;;;;;15.49;73.93;101436.66;5082061;27;52887;-88
2022/06/06 02:26:14;;;;;;;;;8.75;5.50;;;;;15.45;73.83;101434.19;5094933;27;45327;-89
2022/06/06 02:28:40;;;;;;;;;11.75;6.50;;;;;15.38;73.92;101438.81;5078657;27;47250;-88
2022/06/06 02:31:06;;;;;;;;;11.75;7.75;;;;;15.37;74.16;101431.00;5078180;27;45428;-88
2022/06/06 02:33:32;;;;;;;;;8.00;6.50;;;;;15.39;74.41;101439.69;5060968;27;45412;-88
2022/06/06 02:36:00;;;;;;;;;12.75;10.00;;;;;15.39;74.30;101437.91;5077550;27;45668;-88
2022/06/06 02:38:26;;;;;;;;;16.50;13.50;;;;;15.36;73.88;101442.41;5094759;27;45491;-88
2022/06/06 02:40:53;;;;;;;;;17.00;14.50;;;;;15.33;74.09;101440.75;5060548;27;45471;-88
2022/06/06 02:43:21;;;;;;;;;12.50;12.50;;;;;15.33;73.72;101439.91;5096511;27;45326;-88
2022/06/06 02:45:48;;;;;;;;;21.00;14.75;;;;;15.29;73.79;101445.25;5092773;27;45426;-88
2022/06/06 02:48:14;;;;;;;;;24.75;17.50;;;;;15.23;73.61;101445.50;5092752;27;45549;-88
2022/06/06 02:50:39;;;;;;;;;22.50;18.25;;;;;15.20;73.84;101448.22;5075941;27;45400;-89
2022/06/06 02:53:05;;;;;;;;;23.00;19.00;;;;;15.15;73.49;101446.69;5094813;27;45340;-88
2022/06/06 02:55:31;;;;;;;;;25.50;20.75;;;;;15.13;73.65;101441.50;5062999;27;45329;-88
2022/06/06 02:57:57;;;;;;;;;22.50;21.25;;;;;15.12;73.83;101431.94;5077519;27;46954;-89
2022/06/06 03:00:26;;;;;;;;;19.50;17.50;;;;;15.12;73.78;101428.44;5074802;27;45816;-88
2022/06/06 03:02:54;;;;;;;;;23.50;22.75;;;;;15.14;73.42;101431.88;5069632;27;45431;-88
2022/06/06 03:05:19;;;;;;;;;17.00;16.50;;;;;15.13;73.17;101417.91;5060635;27;45535;-88
2022/06/06 03:07:48;;;;;;;;;19.75;17.00;;;;;15.12;72.94;101426.69;5094292;27;64486;-89
2022/06/06 03:10:28;;;;;;;;;15.75;13.75;;;;;15.09;72.73;101421.56;5096776;27;45791;-88
2022/06/06 03:13:36;;;;;;;;;17.50;12.50;;;;;15.05;73.13;101427.81;5094390;27;45377;-88
2022/06/06 03:22:20;;;;;;;;;13.75;11.25;;;;;14.95;72.28;101436.91;5059854;28;45368;-88
2022/06/06 03:25:01;;;;;;;;;11.50;9.50;;;;;14.95;72.10;101432.56;5069788;28;45382;-88
2022/06/06 03:27:39;;;;;;;;;2.00;0.00;;;;;14.92;72.47;101432.66;5073901;28;45531;-88
2022/06/06 03:30:09;;;;;;;;;10.50;9.50;;;;;14.87;72.05;101435.44;5072179;28;46245;-88
2022/06/06 03:32:46;;;;;;;;;11.25;8.00;;;;;14.89;73.17;101438.00;5072353;28;45830;-88
2022/06/06 03:35:23;;;;;;;;;14.25;11.00;;;;;14.87;72.36;101434.56;5071132;28;45471;-88
2022/06/06 03:37:58;;;;;;;;;11.00;8.50;;;;;14.83;72.91;101440.84;5054958;28;45495;-88
2022/06/06 03:40:32;;;;;;;;;11.00;7.25;;;;;14.81;72.51;101437.44;5057558;28;45538;-88
2022/06/06 03:43:21;;;;;;;;;9.25;7.00;;;;;14.81;72.86;101447.91;5053006;28;45807;-88
2022/06/06 03:45:51;;;;;;;;;8.50;4.50;;;;;14.81;73.09;101447.91;5071700;28;45375;-88
2022/06/06 03:48:47;;;;;;;;;7.50;6.25;;;;;14.79;72.67;101447.13;5056748;28;45593;-88
2022/06/06 03:51:43;;;;;;;;;7.00;7.00;;;;;14.76;72.84;101444.59;5097323;27;46333;-88
2022/06/06 03:54:41;;;;;;;;;7.00;4.25;;;;;14.73;72.74;101449.94;5093915;27;45748;-88
2022/06/06 03:57:16;;;;;;;;;7.00;5.00;;;;;14.74;72.96;101444.63;5081447;27;45339;-88
2022/06/06 03:59:42;;;;;;;;;7.50;6.50;;;;;14.77;72.79;101446.31;5093695;27;45511;-88
2022/06/06 04:02:09;;;;;;;;;7.50;6.50;;;;;14.82;72.72;101450.47;5073625;27;47063;-88
2022/06/06 04:04:34;;;;;;;;;8.25;6.00;;;;;14.84;73.10;101448.66;5095435;27;45839;-88
2022/06/06 04:07:03;;;;;;;;;8.25;4.50;;;;;14.88;72.95;101454.66;5077254;27;57498;-88
2022/06/06 04:09:32;;;;;;;;;4.00;4.00;;;;;14.90;72.57;101453.66;5094359;27;45557;-88
2022/06/06 04:12:19;;;;;;;;;5.75;5.00;;;;;14.93;72.66;101455.31;5074560;27;46394;-88
2022/06/06 04:15:17;;;;;;;;;3.75;3.75;;;;;14.95;72.76;101457.88;5091983;27;45879;-88
2022/06/06 04:18:01;;;;;;;;;3.75;3.75;;;;;14.97;72.55;101456.06;5092060;27;45357;-88
2022/06/06 04:20:44;;;;;;;;;5.00;4.50;;;;;14.99;72.00;101462.09;5094918;27;45454;-89
2022/06/06 04:23:45;;;;;;;;;5.75;4.25;;;;;15.02;72.22;101464.63;5077659;27;46353;-88
2022/06/06 04:26:19;;;;;;;;;6.25;3.50;;;;;15.03;71.99;101459.34;5077715;27;45360;-88
2022/06/06 04:28:52;;;;;;;;;3.75;3.75;;;;;15.06;72.12;101468.84;5094959;27;45372;-88
2022/06/06 04:31:36;;;;;;;;;6.75;5.00;;;;;15.04;71.86;101470.66;5073144;27;45349;-88
2022/06/06 04:34:12;;;;;;;;;9.25;7.00;;;;;15.01;71.50;101461.16;5073049;27;46293;-88
2022/06/06 04:36:59;;;;;;;;;5.00;4.00;;;;;15.05;71.98;101456.66;5090216;27;45552;-89
2022/06/06 04:39:31;;;;;;;;;4.25;4.25;;;;;15.06;71.54;101455.75;5078199;27;45563;-89
2022/06/06 04:42:16;;;;;;;;;6.75;4.00;;;;;15.06;71.85;101454.00;5074116;27;45431;-88
2022/06/06 04:44:52;;;;;;;;;8.25;4.00;;;;;15.06;71.52;101458.34;5093000;27;45806;-87
2022/06/06 04:47:50;;;;;;;;;4.75;4.75;;;;;15.02;71.18;101455.00;5093375;27;45861;-88
2022/06/06 04:50:19;;;;;;;;;5.50;3.50;;;;;15.02;71.16;101455.00;5073636;27;45448;-87
2022/06/06 04:53:03;;;;;;;;;3.00;3.00;;;;;15.00;71.06;101458.59;5053214;28;45666;-87
2022/06/06 04:55:29;;;;;;;;;4.00;3.75;;;;;14.98;71.31;101463.03;5057444;28;45753;-88
2022/06/06 04:57:56;;;;;;;;;1.25;1.25;;;;;14.94;70.78;101456.19;5055994;28;46121;-88
2022/06/06 05:00:24;;;;;;;;;3.25;2.00;;;;;14.93;71.10;101464.97;5055870;28;45470;-88
2022/06/06 05:02:50;;;;;;;;;3.00;3.00;;;;;14.91;71.65;101462.38;5070158;27;45419;-89
2022/06/06 05:05:15;;;;;;;;;3.75;2.00;;;;;14.90;70.61;101460.69;5055818;28;45415;-88
2022/06/06 05:07:46;;;;;;;;;2.00;2.00;;;;;14.89;71.00;101467.72;5076035;28;45696;-88
2022/06/06 05:10:50;;;;;;;;;4.75;3.00;;;;;14.88;70.98;101471.22;5076099;28;45403;-88
2022/06/06 05:13:53;;;;;;;;;2.00;2.00;;;;;14.83;70.97;101473.16;5074578;28;45270;-88
2022/06/06 05:16:39;;;;;;;;;2.50;2.25;;;;;14.81;70.77;101461.84;5063213;28;45394;-89
2022/06/06 05:19:14;;;;;;;;;2.50;2.50;;;;;14.80;71.03;101464.53;5071603;28;45561;-88
2022/06/06 05:22:07;;;;;;;;;2.75;2.00;;;;;14.76;70.53;101469.03;5075095;28;45427;-88
2022/06/06 05:25:02;;;;;;;;;2.50;2.50;;;;;14.73;70.84;101465.66;5039489;28;45360;-88
2022/06/06 05:27:56;;;;;;;;;;;;;;;;;;;;;
2022/06/06 05:30:49;;;;;;;;;2.00;0.75;;;;;14.72;70.76;101467.41;5089016;27;72703;-88
2022/06/06 05:33:27;;;;;;;;;5.00;1.00;;;;;14.70;70.51;101471.88;5075034;27;45620;-88
2022/06/06 05:36:08;;;;;;;;;1.00;1.00;;;;;14.71;70.77;101470.97;5095663;27;45487;-88
2022/06/06 05:39:05;;;;;;;;;1.25;1.25;;;;;14.76;71.18;101473.41;5096504;27;46129;-88
2022/06/06 05:41:42;;;;;;;;;3.00;2.25;;;;;14.83;70.79;101473.16;5083294;27;45332;-88
2022/06/06 05:44:22;;;;;;;;;1.00;1.00;;;;;14.86;69.46;101470.44;5079857;27;45288;-88
2022/06/06 05:46:59;;;;;;;;;1.00;1.00;;;;;14.89;70.96;101467.72;5097692;27;45370;-88
2022/06/06 05:49:39;;;;;;;;;1.50;1.00;;;;;14.95;70.82;101468.38;5097996;27;46204;-89
2022/06/06 05:52:25;;;;;;;;;2.75;1.00;;;;;14.98;70.04;101471.75;5094787;27;45602;-88
2022/06/06 05:55:18;;;;;;;;;1.00;0.25;;;;;14.97;69.51;101474.41;5090304;27;45331;-89
2022/06/06 05:57:53;;;;;;;;;3.50;1.75;;;;;14.96;69.31;101478.81;5094678;27;45350;-90
2022/06/06 06:00:34;;;;;;;;;1.00;1.00;;;;;14.95;69.11;101474.50;5091611;27;47367;-89
2022/06/06 06:03:16;;;;;;;;;2.00;0.00;;;;;14.96;69.03;101484.06;5087095;27;47394;-89
2022/06/06 06:06:15;;;;;;;;;0.00;0.00;;;;;14.97;69.34;101480.53;5094183;27;45523;-89
2022/06/06 06:08:58;;;;;;;;;0.50;0.00;;;;;14.99;68.90;101485.69;5096498;27;45440;-88
2022/06/06 06:11:47;;;;;;;;;2.00;1.00;;;;;15.02;69.33;101489.06;5092814;27;47305;-89
2022/06/06 06:14:19;;;;;;;;;1.50;1.25;;;;;15.10;69.89;101494.06;5097497;27;45792;-89
2022/06/06 06:16:52;;;;;;;;;2.25;1.00;;;;;15.17;69.25;101498.16;5097209;27;47646;-89
2022/06/06 06:19:20;;;;;;;;;0.75;0.75;;;;;15.22;69.14;101498.00;5081025;27;45428;-89
2022/06/06 06:21:55;;;;;;;;;1.00;1.00;;;;;15.24;69.64;101499.66;5062631;27;47674;-89
2022/06/06 06:24:32;;;;;;;;;2.00;1.00;;;;;15.27;68.72;101501.31;5094251;27;45435;-88
2022/06/06 06:26:58;;;;;;;;;3.25;1.00;;;;;15.28;69.34;101503.91;5075727;27;46015;-89
2022/06/06 06:29:23;;;;;;;;;1.00;1.00;;;;;15.33;68.97;101500.25;5079072;27;45525;-89
2022/06/06 06:32:18;;;;;;;;;2.00;1.00;;;;;15.40;68.50;101499.13;5062163;27;48015;-88
2022/06/06 06:35:08;;;;;;;;;1.00;1.00;;;;;15.50;68.92;101503.09;5078834;27;45276;-90
2022/06/06 06:37:47;;;;;;;;;1.00;1.00;;;;;15.56;68.91;101505.47;5093280;27;45423;-90
2022/06/06 06:40:31;;;;;;;;;0.75;0.75;;;;;15.66;68.24;101506.84;5097649;27;45288;-90
2022/06/06 06:43:06;;;;;;;;;4.25;1.00;;;;;15.68;67.23;101512.03;5093399;27;48434;-89
2022/06/06 06:46:00;;;;;;;;;3.50;1.00;;;;;15.68;67.39;101518.13;5093114;27;45307;-89
2022/06/06 06:48:45;;;;;;;;;1.25;1.00;;;;;15.69;66.91;101516.38;5094508;27;45492;-90
2022/06/06 06:51:18;;;;;;;;;0.50;0.50;;;;;15.72;66.79;101521.50;5095314;27;45324;-88
2022/06/06 06:54:00;;;;;;;;;2.50;1.00;;;;;15.75;67.25;101520.56;5072327;27;47894;-90
2022/06/06 06:57:09;;;;;;;;;3.25;2.00;;;;;15.80;66.72;101518.63;5095330;27;45632;-89
2022/06/06 06:59:42;;;;;;;;;1.50;1.50;;;;;15.84;66.08;101515.84;5085700;27;45386;-90
2022/06/06 07:08:46;;;;;;;;;1.00;1.00;;;;;16.23;67.51;101522.19;5059651;28;45400;-90
2022/06/06 07:11:17;;;;;;;;;1.25;1.00;;;;;16.29;65.62;101519.31;5071798;28;45589;-89
2022/06/06 07:14:03;;;;;;;;;1.75;0.75;;;;;16.31;65.19;101512.25;5075306;28;45432;-90
2022/06/06 07:16:33;;;;;;;;;1.00;1.00;;;;;16.43;64.78;101514.34;5058949;28;47180;-91
2022/06/06 07:19:20;;;;;;;;;0.00;0.00;;;;;16.56;64.95;101516.47;5074681;27;45796;-90
2022/06/06 07:21:54;;;;;;;;;1.00;1.00;;;;;16.63;64.61;101507.41;5058482;28;45360;-91
2022/06/06 07:24:20;;;;;;;;;0.50;0.50;;;;;16.71;65.26;101513.19;5075671;28;45484;-90
2022/06/06 07:26:48;;;;;;;;;2.00;1.00;;;;;16.72;63.31;101514.06;5074184;28;45546;-90
2022/06/06 07:29:18;;;;;;;;;1.00;1.00;;;;;16.67;64.63;101511.63;5057803;28;45467;-91
2022/06/06 07:32:02;;;;;;;;;0.75;0.75;;;;;16.70;63.56;101515.91;5056410;28;45451;-90
2022/06/06 07:34:50;;;;;;;;;3.00;1.00;;;;;16.70;63.89;101513.28;5070716;28;45380;-90
2022/06/06 07:37:21;;;;;;;;;1.50;1.00;;;;;16.77;64.06;101509.44;5055269;28;45558;-90
2022/06/06 07:39:55;;;;;;;;;2.00;0.25;;;;;16.78;63.37;101504.13;5070886;28;45305;-90
2022/06/06 07:42:37;;;;;;;;;1.00;1.00;;;;;16.80;62.88;101510.19;5053489;28;45380;-90
2022/06/06 07:45:24;;;;;;;;;1.50;1.00;;;;;16.82;63.68;101507.47;5085917;27;45563;-90
2022/06/06 07:47:55;;;;;;;;;2.75;0.25;;;;;16.87;62.80;101507.34;5095721;27;47152;-90
2022/06/06 07:50:23;;;;;;;;;1.00;1.00;;;;;16.88;63.12;101503.78;5094305;27;45947;-90
2022/06/06 07:53:02;;;;;;;;;1.25;1.00;;;;;16.93;62.01;101501.81;5095141;27;45294;-90
2022/06/06 07:55:36;;;;;;;;;1.25;1.00;;;;;16.95;62.10;101510.47;5080091;27;45505;-91
2022/06/06 07:58:16;;;;;;;;;1.00;1.00;;;;;16.99;62.19;101504.16;5095173;27;46535;-88
2022/06/06 08:00:47;;;;;;;;;0.50;0.50;;;;;16.98;61.02;101507.72;5088872;27;45438;-88
2022/06/06 08:03:19;;;;;;;;;2.00;1.00;;;;;17.01;61.68;101502.31;5073697;27;45372;-90
2022/06/06 08:06:21;;;;;;;;;1.00;1.00;;;;;17.10;62.07;101501.06;5084823;27;45367;-91
2022/06/06 08:09:05;;;;;;;;;1.00;1.00;;;;;17.20;61.45;101499.75;5095780;27;46102;-93
2022/06/06 08:11:46;;;;;;;;;1.75;1.75;;;;;17.30;60.36;101502.81;5098408;27;45680;-87
2022/06/06 08:14:33;;;;;;;;;1.00;0.00;;;;;17.39;60.16;101497.97;5065240;27;45273;-92
2022/06/06 08:17:35;;;;;;;;;1.50;1.50;;;;;17.56;60.71;101496.34;5097824;27;45339;-93
2022/06/06 08:20:23;;;;;;;;;3.00;1.75;;;;;17.69;61.04;101500.13;5075728;28;47118;-96
2022/06/06 08:22:49;;;;;;;;;1.00;1.00;;;;;17.78;58.17;101501.47;5075930;28;46650;-90
2022/06/06 08:25:15;;;;;;;;;1.00;1.00;;;;;17.86;59.76;101495.88;5038520;28;45350;-91
2022/06/06 08:27:47;;;;;;;;;2.00;1.00;;;;;17.89;58.93;101496.59;5055000;28;45546;-92
2022/06/06 08:30:13;;;;;;;;;1.00;1.00;;;;;17.97;57.99;101496.22;5058097;28;47393;-91
2022/06/06 08:32:38;;;;;;;;;1.00;1.00;;;;;18.07;58.94;101486.09;5062497;28;45776;-91
2022/06/06 08:35:04;;;;;;;;;0.00;0.00;;;;;18.07;57.72;101496.63;5057133;28;61190;-88
2022/06/06 08:37:50;;;;;;;;;1.00;0.00;;;;;18.08;57.90;101485.16;5054178;28;45427;-91
2022/06/06 08:40:37;;;;;;;;;4.25;1.00;;;;;18.17;56.79;101490.00;5075179;27;46632;-84
2022/06/06 08:43:36;;;;;;;;;3.25;1.00;;;;;18.28;56.72;101484.19;5074505;27;45442;-86
2022/06/06 08:46:21;;;;;;;;;2.00;2.00;;;;;18.29;56.03;101475.34;5080735;27;45475;-87
2022/06/06 08:49:02;;;;;;;;;1.75;1.75;;;;;18.37;55.90;101483.75;5060517;28;45622;-86
2022/06/06 08:51:52;;;;;;;;;0.00;0.00;;;;;18.44;54.11;101481.63;5074463;27;46132;-87
2022/06/06 08:54:40;;;;;;;;;3.00;1.00;;;;;18.38;54.29;101482.81;5067474;28;45415;-88
2022/06/06 08:57:07;;;;;;;;;0.00;0.00;;;;;18.39;55.57;101473.97;5087131;27;45822;-89
2022/06/06 08:59:47;;;;;;;;;1.75;1.00;;;;;18.44;54.82;101476.38;5091330;27;45594;-87
2022/06/06 09:02:37;;;;;;;;;1.25;1.00;;;;;18.54;53.58;101478.47;5080771;27;46341;-86
2022/06/06 09:05:23;;;;;;;;;0.00;0.00;;;;;18.67;53.12;101483.13;5099988;27;45559;-90
2022/06/06 09:08:21;;;;;;;;;1.00;0.00;;;;;18.70;53.31;101482.94;5096610;27;46393;-87
2022/06/06 09:11:17;;;;;;;;;1.00;0.00;;;;;18.70;52.64;101477.69;5100046;27;45479;-87
2022/06/06 09:13:48;;;;;;;;;0.00;0.00;;;;;18.90;52.24;101476.69;5094453;27;45700;-95
2022/06/06 09:16:22;;;;;;;;;0.00;0.00;;;;;19.09;53.84;101476.56;5095107;27;45419;-88
2022/06/06 09:19:18;;;;;;;;;0.00;0.00;;;;;19.33;52.89;101480.56;5077780;27;45411;-90
2022/06/06 09:21:50;;;;;;;;;0.00;0.00;;;;;19.52;51.72;101485.69;5094596;27;45333;-86
2022/06/06 09:24:56;;;;;;;;;0.00;0.00;;;;;19.72;50.29;101473.16;5097984;27;45442;-85
2022/06/06 09:27:55;;;;;;;;;0.00;0.00;;;;;19.77;50.24;101479.06;5072757;28;45499;-87
2022/06/06 09:30:47;;;;;;;;;1.00;1.00;;;;;19.92;48.76;101475.56;5075001;27;45525;-88
2022/06/06 09:33:40;;;;;;;;;0.00;0.00;;;;;20.08;49.20;101474.69;5075081;28;45503;-85
2022/06/06 09:36:19;;;;;;;;;0.00;0.00;;;;;20.11;48.44;101470.09;5079103;27;46385;-85
2022/06/06 09:39:03;;;;;;;;;4.25;2.00;;;;;20.18;50.01;101483.78;5058208;28;45538;-89
2022/06/06 09:42:23;;;;;;;;;;;;;;;;;;;;;
2022/06/06 09:45:10;;;;;;;;;;;;;;;;;;;;;
2022/06/06 09:47:50;;;;;;;;;0.00;0.00;;;;;20.54;49.32;101469.38;5028145;28;74716;-94
2022/06/06 09:50:56;;;;;;;;;32.50;21.25;;;;;20.63;46.77;101458.25;5039995;28;45979;-95
2022/06/06 09:59:01;;;;;;;;;0.25;0.00;;;;;20.76;47.33;101466.31;5051544;28;45526;-94
2022/06/06 10:00:30;;;;;;;;;0.25;0.25;;;;;20.78;45.04;101464.44;5030570;28;45787;-95
2022/06/06 10:03:26;;;;;;;;;2.00;0.25;;;;;20.82;46.65;101462.44;5019570;28;45486;-93
2022/06/06 10:06:52;;;;;;;;;2.00;1.00;;;;;20.78;45.68;101464.44;5019064;28;45427;-92
2022/06/06 10:09:25;;;;;;;;;0.25;0.00;;;;;20.74;47.84;101464.72;4960568;28;45615;-94
2022/06/06 10:12:03;;;;;;;;;0.00;0.00;;;;;20.90;45.86;101460.19;4961300;28;45787;-87
2022/06/06 10:14:54;;;;;;;;;0.50;0.00;;;;;21.04;47.29;101459.34;4958880;28;45434;-86
2022/06/06 10:17:45;;;;;;;;;1.00;1.00;;;;;21.17;45.42;101468.25;4897771;28;45506;-85
2022/06/06 10:20:30;;;;;;;;;0.00;0.00;;;;;21.16;45.53;101461.22;4870626;29;45576;-85
2022/06/06 10:23:08;;;;;;;;;0.00;0.00;;;;;21.13;45.65;101464.06;4898058;28;47362;-86
2022/06/06 10:25:46;;;;;;;;;1.00;1.00;;;;;21.21;46.49;101467.09;4894898;29;45718;-86
2022/06/06 10:28:27;;;;;;;;;0.00;0.00;;;;;21.20;44.89;101472.50;4899370;28;45607;-85
2022/06/06 10:31:08;;;;;;;;;0.00;0.00;;;;;21.23;44.11;101467.84;4887825;28;45450;-85
2022/06/06 10:33:40;;;;;;;;;2.00;0.00;;;;;21.26;44.38;101470.28;4913851;28;45424;-85
2022/06/06 10:36:50;;;;;;;;;3.75;2.00;;;;;21.25;45.55;101471.25;4916371;28;45506;-85
2022/06/06 10:39:27;;;;;;;;;1.75;1.50;;;;;21.19;44.09;101469.00;4974879;28;45383;-85
2022/06/06 10:42:17;;;;;;;;;1.00;0.25;;;;;21.15;44.06;101475.41;4999333;28;45404;-85
2022/06/06 10:44:52;;;;;;;;;0.00;0.00;;;;;21.25;45.00;101470.41;5030010;28;46575;-85
2022/06/06 10:47:57;;;;;;;;;0.00;0.00;;;;;21.55;44.30;101462.34;5027311;28;45934;-91
2022/06/06 10:53:46;;;;;;;;;0.00;0.00;;;;;21.77;43.33;101459.19;5020373;27;45257;-89
2022/06/06 10:56:32;;;;;;;;;0.00;0.00;;;;;21.75;42.83;101460.22;5096825;27;45516;-88
2022/06/06 10:59:22;;;;;;;;;0.00;0.00;;;;;21.87;44.31;101455.94;5086272;27;45513;-87
2022/06/06 11:02:03;;;;;;;;;0.25;0.00;;;;;22.19;41.57;101452.00;5094330;27;45348;-87
2022/06/06 11:05:00;;;;;;;;;1.00;1.00;;;;;22.43;41.36;101448.69;5090041;27;45303;-91
2022/06/06 11:08:09;;;;;;;;;;;;;;;;;;;;;
2022/06/06 11:11:14;;;;;;;;;1.00;1.00;;;;;22.28;42.60;101452.38;5017179;28;72306;-89
2022/06/06 11:14:03;;;;;;;;;0.75;0.75;;;;;22.27;43.07;101448.88;5019915;28;45465;-90
2022/06/06 11:16:58;;;;;;;;;2.00;0.00;;;;;22.42;42.82;101447.84;5024969;28;45555;-87
2022/06/06 11:19:51;;;;;;;;;0.25;0.25;;;;;22.67;41.56;101447.97;5017567;28;45306;-88
2022/06/06 11:22:24;;;;;;;;;1.00;0.00;;;;;22.92;41.66;101450.63;5004445;28;45541;-92
2022/06/06 11:25:38;;;;;;;;;;;;;;;;;;;;;
2022/06/06 11:28:29;;;;;;;;;2.00;0.00;;;;;22.92;40.44;101447.97;5019922;28;45561;-88
2022/06/06 11:31:09;;;;;;;;;0.00;0.00;;;;;23.02;40.70;101448.16;5032801;28;45417;-91
2022/06/06 11:34:04;;;;;;;;;0.25;0.00;;;;;23.19;39.70;101454.97;5036484;28;45696;-89
2022/06/06 11:37:06;;;;;;;;;;;;;;;;;;;;;
2022/06/06 11:39:49;;;;;;;;;1.50;0.50;;;;;22.85;39.04;101449.34;5030394;28;70269;-93
2022/06/06 11:42:46;;;;;;;;;0.00;0.00;;;;;22.61;40.14;101447.41;5020706;28;45511;-92
2022/06/06 11:45:23;;;;;;;;;0.75;0.75;;;;;22.68;41.01;101447.88;5109713;27;45279;-92
2022/06/06 11:48:07;;;;;;;;;0.00;0.00;;;;;23.05;39.20;101448.00;5104491;27;45201;-93
2022/06/06 11:50:42;;;;;;;;;0.00;0.00;;;;;22.93;39.79;101454.13;5081013;27;45507;-89
2022/06/06 11:53:26;;;;;;;;;1.00;1.00;;;;;22.71;39.56;101452.94;5094084;27;47017;-91
2022/06/06 11:56:03;;;;;;;;;0.00;0.00;;;;;22.88;40.77;101448.28;5099610;27;45388;-89
2022/06/06 11:58:46;;;;;;;;;0.00;0.00;;;;;23.68;40.91;101448.78;5091019;27;45322;-84
2022/06/06 12:01:27;;;;;;;;;0.00;0.00;;;;;28.09;35.58;101456.25;5120746;27;45615;-85
2022/06/06 12:04:14;;;;;;;;;1.00;0.00;;;;;30.46;29.43;101448.56;5103836;27;45494;-92
2022/06/06 12:06:52;;;;;;;;;0.00;0.00;;;;;30.43;29.86;101444.38;5115346;27;46140;-87
2022/06/06 12:09:30;;;;;;;;;1.00;0.00;;;;;32.13;27.46;101451.56;5109182;27;45278;-89
2022/06/06 12:12:17;;;;;;;;;2.75;0.75;;;;;35.07;25.72;101452.59;5092697;27;44750;-88
2022/06/06 12:15:07;;;;;;;;;0.25;0.25;;;;;36.41;22.60;101445.84;5095391;27;46198;-87
2022/06/06 12:17:59;;;;;;;;;0.50;0.00;;;;;38.66;23.80;101452.00;5108616;27;45297;-88
2022/06/06 12:21:03;;;;;;;;;0.00;0.00;;;;;37.74;20.93;101434.69;5103944;27;45309;-94
2022/06/06 12:23:54;;;;;;;;;0.00;0.00;;;;;35.27;20.69;101446.59;5090917;27;45374;-92
2022/06/06 12:26:39;;;;;;;;;0.00;0.00;;;;;37.35;20.26;101456.16;5099665;27;45591;-94
2022/06/06 12:29:32;;;;;;;;;2.00;0.00;;;;;35.93;21.82;101437.53;5073019;27;45239;-87
2022/06/06 12:32:18;;;;;;;;;0.00;0.00;;;;;33.66;21.94;101431.69;5089522;27;45268;-88
2022/06/06 12:35:25;;;;;;;;;0.00;0.00;;;;;31.42;24.31;101424.16;5100520;27;45515;-93
2022/06/06 12:37:59;;;;;;;;;0.50;0.50;;;;;30.03;27.46;101420.72;5081540;27;46150;-89
2022/06/06 12:40:31;;;;;;;;;0.25;0.25;;;;;29.79;28.21;101422.22;5100832;27;45560;-88
2022/06/06 12:43:03;;;;;;;;;0.00;0.00;;;;;30.71;27.35;101419.19;5078626;27;45382;-87
2022/06/06 12:45:41;;;;;;;;;1.00;1.00;;;;;31.56;27.11;101411.97;5092211;27;45517;-94
2022/06/06 12:48:27;;;;;;;;;0.00;0.00;;;;;32.23;23.14;101424.44;5109574;27;47271;-91
2022/06/06 12:51:18;;;;;;;;;0.00;0.00;;;;;32.47;24.18;101411.94;5096180;27;45339;-92